VCP71 RCTP-VMMC
Flight info
| Callsign | VCP71 |
|---|---|
| Flight time | 1h 24m |
| Altitude | 34000 |
| Route | CHALI1A CHALI T3 MKG A1 ELATO J101 SMT SMT5B |
| Aircraft | A21N/M-SDE2E3FGHIRWXY/LB1 |
Departure
| Time | 2026-05-08 11:20 |
|---|---|
| Airport | Taiwan Taoyuan International Airport (RCTP) |
Arrival
| Time | 2026-05-08 12:45 |
|---|---|
| Airport | Macau International Airport (VMMC) |
| Time | Latitude | Longitude | Altitude | Speed | Heading |
|---|---|---|---|---|---|
| 2026-05-08 10:44 | 25.07419 | 121.23199 | 116 ft | 0 kts | 319° |
| 2026-05-08 11:10 | 25.07418 | 121.23199 | 116 ft | 1 kts | 319° |
| 2026-05-08 11:10 | 25.07406 | 121.23210 | 116 ft | 2 kts | 319° |
| 2026-05-08 11:10 | 25.07395 | 121.23221 | 116 ft | 2 kts | 319° |
| 2026-05-08 11:10 | 25.07383 | 121.23231 | 116 ft | 2 kts | 319° |
| 2026-05-08 11:11 | 25.07372 | 121.23243 | 116 ft | 2 kts | 319° |
| 2026-05-08 11:11 | 25.07361 | 121.23254 | 116 ft | 2 kts | 319° |
| 2026-05-08 11:11 | 25.07352 | 121.23261 | 116 ft | 0 kts | 319° |
| 2026-05-08 11:11 | 25.07343 | 121.23273 | 116 ft | 2 kts | 293° |
| 2026-05-08 11:12 | 25.07340 | 121.23289 | 116 ft | 2 kts | 269° |
| 2026-05-08 11:12 | 25.07343 | 121.23305 | 116 ft | 2 kts | 243° |
| 2026-05-08 11:12 | 25.07347 | 121.23312 | 116 ft | 1 kts | 228° |
| 2026-05-08 11:12 | 25.07351 | 121.23317 | 116 ft | 0 kts | 229° |
| 2026-05-08 11:14 | 25.07343 | 121.23306 | 116 ft | 3 kts | 229° |
| 2026-05-08 11:14 | 25.07320 | 121.23278 | 116 ft | 6 kts | 229° |
| 2026-05-08 11:15 | 25.07281 | 121.23228 | 116 ft | 10 kts | 229° |
| 2026-05-08 11:15 | 25.07227 | 121.23182 | 116 ft | 10 kts | 190° |
| 2026-05-08 11:15 | 25.07160 | 121.23215 | 116 ft | 10 kts | 139° |
| 2026-05-08 11:15 | 25.07100 | 121.23263 | 116 ft | 10 kts | 159° |
| 2026-05-08 11:16 | 25.07035 | 121.23235 | 116 ft | 11 kts | 224° |
| 2026-05-08 11:16 | 25.06979 | 121.23167 | 116 ft | 12 kts | 229° |
| 2026-05-08 11:16 | 25.06916 | 121.23087 | 116 ft | 14 kts | 229° |
| 2026-05-08 11:16 | 25.06843 | 121.22994 | 116 ft | 17 kts | 229° |
| 2026-05-08 11:17 | 25.06761 | 121.22891 | 116 ft | 18 kts | 229° |
| 2026-05-08 11:17 | 25.06672 | 121.22778 | 116 ft | 20 kts | 229° |
| 2026-05-08 11:17 | 25.06575 | 121.22655 | 116 ft | 21 kts | 229° |
| 2026-05-08 11:17 | 25.06475 | 121.22527 | 116 ft | 21 kts | 229° |
| 2026-05-08 11:18 | 25.06407 | 121.22440 | 116 ft | 12 kts | 228° |
| 2026-05-08 11:18 | 25.06333 | 121.22424 | 116 ft | 9 kts | 150° |
| 2026-05-08 11:18 | 25.06305 | 121.22448 | 116 ft | 0 kts | 139° |
| 2026-05-08 11:19 | 25.06298 | 121.22454 | 116 ft | 4 kts | 139° |
| 2026-05-08 11:19 | 25.06254 | 121.22501 | 116 ft | 11 kts | 118° |
| 2026-05-08 11:19 | 25.06273 | 121.22588 | 116 ft | 12 kts | 51° |
| 2026-05-08 11:19 | 25.06409 | 121.22763 | 116 ft | 63 kts | 49° |
| 2026-05-08 11:20 | 25.06849 | 121.23322 | 116 ft | 127 kts | 49° |
| 2026-05-08 11:20 | 25.07540 | 121.24205 | 220 ft | 168 kts | 49° |
| 2026-05-08 11:20 | 25.08240 | 121.25150 | 1062 ft | 158 kts | 49° |
| 2026-05-08 11:20 | 25.08939 | 121.26049 | 1821 ft | 157 kts | 50° |
| 2026-05-08 11:21 | 25.09658 | 121.26969 | 2360 ft | 166 kts | 50° |
| 2026-05-08 11:21 | 25.10450 | 121.27988 | 2767 ft | 182 kts | 50° |
| 2026-05-08 11:21 | 25.11297 | 121.29076 | 3294 ft | 193 kts | 51° |
| 2026-05-08 11:21 | 25.12320 | 121.30122 | 3667 ft | 216 kts | 30° |
| 2026-05-08 11:22 | 25.13859 | 121.30513 | 4067 ft | 244 kts | 0° |
| 2026-05-08 11:22 | 25.15529 | 121.29884 | 4528 ft | 271 kts | 326° |
| 2026-05-08 11:22 | 25.16839 | 121.28341 | 5316 ft | 278 kts | 310° |
| 2026-05-08 11:22 | 25.18098 | 121.26717 | 6181 ft | 279 kts | 310° |
| 2026-05-08 11:23 | 25.19375 | 121.25122 | 7013 ft | 281 kts | 310° |
| 2026-05-08 11:23 | 25.20661 | 121.23515 | 7832 ft | 282 kts | 309° |
| 2026-05-08 11:23 | 25.21956 | 121.21895 | 8621 ft | 284 kts | 309° |
| 2026-05-08 11:23 | 25.23267 | 121.20255 | 9376 ft | 286 kts | 309° |
| 2026-05-08 11:24 | 25.24577 | 121.18617 | 10090 ft | 288 kts | 309° |
| 2026-05-08 11:24 | 25.25898 | 121.16958 | 10654 ft | 295 kts | 307° |
| 2026-05-08 11:24 | 25.26962 | 121.14972 | 10957 ft | 309 kts | 287° |
| 2026-05-08 11:24 | 25.27285 | 121.12579 | 11234 ft | 323 kts | 266° |
| 2026-05-08 11:25 | 25.26763 | 121.10130 | 11504 ft | 338 kts | 245° |
| 2026-05-08 11:25 | 25.25392 | 121.07946 | 11784 ft | 355 kts | 229° |
| 2026-05-08 11:25 | 25.23715 | 121.05876 | 12047 ft | 370 kts | 229° |
| 2026-05-08 11:25 | 25.21987 | 121.03721 | 12300 ft | 384 kts | 230° |
| 2026-05-08 11:26 | 25.20161 | 121.01527 | 12533 ft | 397 kts | 227° |
| 2026-05-08 11:26 | 25.18150 | 120.99334 | 12940 ft | 405 kts | 225° |
| 2026-05-08 11:26 | 25.16140 | 120.97181 | 13495 ft | 408 kts | 225° |
| 2026-05-08 11:26 | 25.14099 | 120.94999 | 14026 ft | 411 kts | 225° |
| 2026-05-08 11:27 | 25.12040 | 120.92797 | 14498 ft | 414 kts | 226° |
| 2026-05-08 11:27 | 25.09977 | 120.90575 | 14965 ft | 417 kts | 226° |
| 2026-05-08 11:27 | 25.07894 | 120.88324 | 15435 ft | 419 kts | 226° |
| 2026-05-08 11:27 | 25.05812 | 120.86079 | 15894 ft | 422 kts | 226° |
| 2026-05-08 11:28 | 25.03698 | 120.83801 | 16352 ft | 424 kts | 226° |
| 2026-05-08 11:28 | 25.01601 | 120.81543 | 16792 ft | 426 kts | 226° |
| 2026-05-08 11:28 | 24.99467 | 120.79245 | 17228 ft | 428 kts | 226° |
| 2026-05-08 11:28 | 24.97334 | 120.76949 | 17618 ft | 431 kts | 226° |
| 2026-05-08 11:29 | 24.95164 | 120.74616 | 17985 ft | 433 kts | 227° |
| 2026-05-08 11:29 | 24.93017 | 120.72308 | 18388 ft | 435 kts | 227° |
| 2026-05-08 11:29 | 24.90832 | 120.69959 | 18752 ft | 438 kts | 227° |
| 2026-05-08 11:29 | 24.88639 | 120.67605 | 19093 ft | 441 kts | 227° |
| 2026-05-08 11:30 | 24.86459 | 120.65266 | 19446 ft | 443 kts | 227° |
| 2026-05-08 11:30 | 24.84229 | 120.62875 | 19766 ft | 445 kts | 227° |
| 2026-05-08 11:30 | 24.82012 | 120.60497 | 20097 ft | 447 kts | 227° |
| 2026-05-08 11:30 | 24.79784 | 120.58109 | 20427 ft | 449 kts | 227° |
| 2026-05-08 11:31 | 24.77547 | 120.55714 | 20748 ft | 451 kts | 227° |
| 2026-05-08 11:31 | 24.75261 | 120.53322 | 21076 ft | 454 kts | 225° |
| 2026-05-08 11:31 | 24.72853 | 120.51033 | 21376 ft | 457 kts | 222° |
| 2026-05-08 11:31 | 24.70339 | 120.48881 | 21684 ft | 460 kts | 219° |
| 2026-05-08 11:32 | 24.67727 | 120.46856 | 21978 ft | 462 kts | 218° |
| 2026-05-08 11:32 | 24.65082 | 120.44848 | 22276 ft | 463 kts | 218° |
| 2026-05-08 11:32 | 24.62438 | 120.42846 | 22674 ft | 462 kts | 218° |
| 2026-05-08 11:32 | 24.59782 | 120.40839 | 23104 ft | 461 kts | 218° |
| 2026-05-08 11:33 | 24.57136 | 120.38837 | 23505 ft | 460 kts | 218° |
| 2026-05-08 11:33 | 24.54533 | 120.36870 | 23887 ft | 459 kts | 218° |
| 2026-05-08 11:33 | 24.51874 | 120.34859 | 24303 ft | 458 kts | 218° |
| 2026-05-08 11:33 | 24.49241 | 120.32867 | 24712 ft | 457 kts | 218° |
| 2026-05-08 11:34 | 24.46636 | 120.30900 | 25102 ft | 457 kts | 219° |
| 2026-05-08 11:34 | 24.44046 | 120.28930 | 25506 ft | 456 kts | 219° |
| 2026-05-08 11:34 | 24.41452 | 120.26920 | 25909 ft | 454 kts | 220° |
| 2026-05-08 11:34 | 24.38857 | 120.24897 | 26312 ft | 453 kts | 220° |
| 2026-05-08 11:35 | 24.36315 | 120.22917 | 26699 ft | 452 kts | 220° |
| 2026-05-08 11:35 | 24.33713 | 120.20892 | 27085 ft | 451 kts | 220° |
| 2026-05-08 11:35 | 24.31163 | 120.18911 | 27442 ft | 451 kts | 220° |
| 2026-05-08 11:35 | 24.28614 | 120.16930 | 27819 ft | 450 kts | 220° |
| 2026-05-08 11:36 | 24.26074 | 120.14960 | 28160 ft | 450 kts | 221° |
| 2026-05-08 11:36 | 24.23512 | 120.12972 | 28533 ft | 449 kts | 221° |
| 2026-05-08 11:36 | 24.20953 | 120.10989 | 28925 ft | 448 kts | 221° |
| 2026-05-08 11:36 | 24.18416 | 120.09026 | 29308 ft | 446 kts | 221° |
| 2026-05-08 11:37 | 24.15888 | 120.07069 | 29683 ft | 445 kts | 221° |
| 2026-05-08 11:37 | 24.13388 | 120.05136 | 30073 ft | 443 kts | 221° |
| 2026-05-08 11:37 | 24.10847 | 120.03173 | 30424 ft | 443 kts | 221° |
| 2026-05-08 11:37 | 24.08346 | 120.01241 | 30764 ft | 442 kts | 221° |
| 2026-05-08 11:38 | 24.05837 | 119.99303 | 31105 ft | 441 kts | 221° |
| 2026-05-08 11:38 | 24.03346 | 119.97381 | 31451 ft | 440 kts | 221° |
| 2026-05-08 11:38 | 24.00836 | 119.95445 | 31802 ft | 438 kts | 221° |
| 2026-05-08 11:38 | 23.98346 | 119.93525 | 32144 ft | 437 kts | 221° |
| 2026-05-08 11:39 | 23.95872 | 119.91621 | 32468 ft | 435 kts | 221° |
| 2026-05-08 11:39 | 23.93414 | 119.89730 | 32795 ft | 434 kts | 221° |
| 2026-05-08 11:39 | 23.90942 | 119.87830 | 33107 ft | 433 kts | 221° |
| 2026-05-08 11:39 | 23.88493 | 119.85946 | 33389 ft | 433 kts | 221° |
| 2026-05-08 11:40 | 23.86011 | 119.84037 | 33643 ft | 433 kts | 221° |
| 2026-05-08 11:40 | 23.83550 | 119.82145 | 33908 ft | 432 kts | 221° |
| 2026-05-08 11:40 | 23.81098 | 119.80261 | 34170 ft | 432 kts | 222° |
| 2026-05-08 11:40 | 23.78658 | 119.78387 | 34383 ft | 432 kts | 222° |
| 2026-05-08 11:41 | 23.76191 | 119.76493 | 34557 ft | 433 kts | 222° |
| 2026-05-08 11:41 | 23.73711 | 119.74589 | 34719 ft | 434 kts | 222° |
| 2026-05-08 11:41 | 23.71228 | 119.72686 | 34865 ft | 435 kts | 221° |
| 2026-05-08 11:42 | 23.67750 | 119.70022 | 34813 ft | 435 kts | 222° |
| 2026-05-08 11:42 | 23.63009 | 119.65909 | 34987 ft | 433 kts | 229° |
| 2026-05-08 11:42 | 23.60838 | 119.63651 | 35225 ft | 429 kts | 232° |
| 2026-05-08 11:43 | 23.58829 | 119.61297 | 35396 ft | 427 kts | 235° |
| 2026-05-08 11:43 | 23.56948 | 119.58804 | 35523 ft | 425 kts | 238° |
| 2026-05-08 11:43 | 23.55195 | 119.56174 | 35642 ft | 424 kts | 242° |
| 2026-05-08 11:43 | 23.53612 | 119.53513 | 35760 ft | 423 kts | 243° |
| 2026-05-08 11:44 | 23.52023 | 119.50776 | 35876 ft | 424 kts | 243° |
| 2026-05-08 11:44 | 23.48864 | 119.45328 | 35970 ft | 427 kts | 243° |
| 2026-05-08 11:45 | 23.45704 | 119.39882 | 35976 ft | 427 kts | 243° |
| 2026-05-08 11:45 | 23.42544 | 119.34442 | 35979 ft | 427 kts | 243° |
| 2026-05-08 11:46 | 23.39360 | 119.28973 | 35978 ft | 428 kts | 243° |
| 2026-05-08 11:46 | 23.36175 | 119.23505 | 35975 ft | 427 kts | 243° |
| 2026-05-08 11:47 | 23.33002 | 119.18061 | 35973 ft | 428 kts | 243° |
| 2026-05-08 11:47 | 23.29809 | 119.12592 | 35970 ft | 429 kts | 243° |
| 2026-05-08 11:48 | 23.26617 | 119.07130 | 35974 ft | 427 kts | 243° |
| 2026-05-08 11:48 | 23.23431 | 119.01683 | 35970 ft | 428 kts | 243° |
| 2026-05-08 11:49 | 23.20234 | 118.96223 | 35979 ft | 429 kts | 243° |
| 2026-05-08 11:49 | 23.17022 | 118.90744 | 35977 ft | 428 kts | 243° |
| 2026-05-08 11:50 | 23.13842 | 118.85326 | 35982 ft | 428 kts | 243° |
| 2026-05-08 11:50 | 23.10638 | 118.79873 | 35977 ft | 429 kts | 243° |
| 2026-05-08 11:51 | 23.07427 | 118.74411 | 35982 ft | 429 kts | 243° |
| 2026-05-08 11:51 | 23.04216 | 118.68954 | 35992 ft | 429 kts | 243° |
| 2026-05-08 11:52 | 23.01006 | 118.63508 | 35996 ft | 429 kts | 243° |
| 2026-05-08 11:52 | 22.97787 | 118.58051 | 35995 ft | 430 kts | 243° |
| 2026-05-08 11:53 | 22.94567 | 118.52604 | 36000 ft | 429 kts | 243° |
| 2026-05-08 11:53 | 22.91340 | 118.47179 | 36002 ft | 430 kts | 243° |
| 2026-05-08 11:54 | 22.88087 | 118.41716 | 36003 ft | 431 kts | 242° |
| 2026-05-08 11:54 | 22.84849 | 118.36284 | 36002 ft | 432 kts | 243° |
| 2026-05-08 11:55 | 22.81577 | 118.30798 | 36005 ft | 433 kts | 242° |
| 2026-05-08 11:55 | 22.78312 | 118.25327 | 36004 ft | 433 kts | 242° |
| 2026-05-08 11:56 | 22.75036 | 118.19849 | 36002 ft | 434 kts | 242° |
| 2026-05-08 11:56 | 22.71765 | 118.14377 | 36004 ft | 433 kts | 242° |
| 2026-05-08 11:57 | 22.68498 | 118.08927 | 36006 ft | 432 kts | 242° |
| 2026-05-08 11:57 | 22.65226 | 118.03466 | 36005 ft | 435 kts | 242° |
| 2026-05-08 11:58 | 22.61943 | 117.97993 | 36004 ft | 435 kts | 242° |
| 2026-05-08 11:58 | 22.58655 | 117.92498 | 35999 ft | 435 kts | 242° |
| 2026-05-08 11:59 | 22.53746 | 117.84229 | 35996 ft | 436 kts | 242° |
| 2026-05-08 11:59 | 22.50465 | 117.78711 | 35994 ft | 438 kts | 242° |
| 2026-05-08 12:00 | 22.47177 | 117.73190 | 35991 ft | 438 kts | 242° |
| 2026-05-08 12:00 | 22.43883 | 117.67663 | 35986 ft | 439 kts | 242° |
| 2026-05-08 12:01 | 22.40600 | 117.62163 | 35984 ft | 438 kts | 242° |
| 2026-05-08 12:01 | 22.37477 | 117.56533 | 35982 ft | 434 kts | 250° |
| 2026-05-08 12:02 | 22.35581 | 117.50414 | 35980 ft | 427 kts | 263° |
| 2026-05-08 12:02 | 22.35087 | 117.44112 | 35985 ft | 422 kts | 275° |
| 2026-05-08 12:03 | 22.35911 | 117.37903 | 35995 ft | 417 kts | 284° |
| 2026-05-08 12:03 | 22.37207 | 117.31794 | 36000 ft | 417 kts | 284° |
| 2026-05-08 12:04 | 22.38498 | 117.25739 | 36000 ft | 416 kts | 284° |
| 2026-05-08 12:04 | 22.39797 | 117.19619 | 36001 ft | 417 kts | 284° |
| 2026-05-08 12:05 | 22.41085 | 117.13513 | 36002 ft | 418 kts | 284° |
| 2026-05-08 12:05 | 22.42370 | 117.07407 | 36002 ft | 417 kts | 284° |
| 2026-05-08 12:06 | 22.43648 | 117.01312 | 36002 ft | 418 kts | 284° |
| 2026-05-08 12:06 | 22.44925 | 116.95219 | 36001 ft | 418 kts | 284° |
| 2026-05-08 12:07 | 22.46205 | 116.89085 | 35994 ft | 419 kts | 284° |
| 2026-05-08 12:07 | 22.47485 | 116.82950 | 35992 ft | 420 kts | 284° |
| 2026-05-08 12:08 | 22.48762 | 116.76810 | 35990 ft | 418 kts | 284° |
| 2026-05-08 12:08 | 22.49815 | 116.70645 | 35992 ft | 419 kts | 279° |
| 2026-05-08 12:09 | 22.50301 | 116.64329 | 35989 ft | 421 kts | 274° |
| 2026-05-08 12:09 | 22.50202 | 116.58011 | 35993 ft | 422 kts | 269° |
| 2026-05-08 12:10 | 22.49857 | 116.51706 | 35993 ft | 421 kts | 269° |
| 2026-05-08 12:10 | 22.49506 | 116.45419 | 35992 ft | 421 kts | 269° |
| 2026-05-08 12:11 | 22.49152 | 116.39099 | 35992 ft | 422 kts | 270° |
| 2026-05-08 12:11 | 22.48796 | 116.32783 | 35994 ft | 422 kts | 269° |
| 2026-05-08 12:12 | 22.48438 | 116.26463 | 35992 ft | 422 kts | 269° |
| 2026-05-08 12:12 | 22.48077 | 116.20174 | 35991 ft | 422 kts | 269° |
| 2026-05-08 12:13 | 22.47713 | 116.13868 | 35992 ft | 422 kts | 269° |
| 2026-05-08 12:13 | 22.47347 | 116.07555 | 35992 ft | 421 kts | 269° |
| 2026-05-08 12:14 | 22.46978 | 116.01260 | 35991 ft | 422 kts | 269° |
| 2026-05-08 12:14 | 22.46608 | 115.94962 | 35992 ft | 421 kts | 269° |
| 2026-05-08 12:15 | 22.46236 | 115.88638 | 35988 ft | 420 kts | 269° |
| 2026-05-08 12:15 | 22.45861 | 115.82340 | 35993 ft | 420 kts | 269° |
| 2026-05-08 12:16 | 22.45485 | 115.76051 | 35989 ft | 421 kts | 269° |
| 2026-05-08 12:16 | 22.45105 | 115.69750 | 35986 ft | 422 kts | 269° |
| 2026-05-08 12:17 | 22.44721 | 115.63448 | 35989 ft | 421 kts | 269° |
| 2026-05-08 12:17 | 22.44334 | 115.57143 | 35984 ft | 423 kts | 269° |
| 2026-05-08 12:18 | 22.43946 | 115.50823 | 35981 ft | 422 kts | 269° |
| 2026-05-08 12:18 | 22.43555 | 115.44519 | 35984 ft | 422 kts | 269° |
| 2026-05-08 12:19 | 22.43158 | 115.38190 | 35982 ft | 422 kts | 269° |
| 2026-05-08 12:19 | 22.42764 | 115.31899 | 35988 ft | 421 kts | 269° |
| 2026-05-08 12:20 | 22.42363 | 115.25581 | 35985 ft | 422 kts | 269° |
| 2026-05-08 12:20 | 22.41963 | 115.19267 | 35984 ft | 423 kts | 269° |
| 2026-05-08 12:21 | 22.41557 | 115.12931 | 35986 ft | 423 kts | 269° |
| 2026-05-08 12:21 | 22.41148 | 115.06602 | 35982 ft | 422 kts | 269° |
| 2026-05-08 12:22 | 22.40740 | 115.00293 | 35980 ft | 423 kts | 269° |
| 2026-05-08 12:22 | 22.40329 | 114.93986 | 35787 ft | 423 kts | 269° |
| 2026-05-08 12:23 | 22.40121 | 114.90826 | 35492 ft | 422 kts | 268° |
| 2026-05-08 12:23 | 22.39911 | 114.87646 | 35053 ft | 420 kts | 268° |
| 2026-05-08 12:23 | 22.39707 | 114.84547 | 34519 ft | 418 kts | 268° |
| 2026-05-08 12:23 | 22.39500 | 114.81404 | 33900 ft | 419 kts | 268° |
| 2026-05-08 12:24 | 22.39292 | 114.78267 | 33229 ft | 420 kts | 268° |
| 2026-05-08 12:24 | 22.39085 | 114.75163 | 32579 ft | 420 kts | 268° |
| 2026-05-08 12:24 | 22.38876 | 114.72024 | 31937 ft | 421 kts | 268° |
| 2026-05-08 12:24 | 22.38667 | 114.68887 | 31269 ft | 422 kts | 268° |
| 2026-05-08 12:25 | 22.38456 | 114.65719 | 30579 ft | 423 kts | 268° |
| 2026-05-08 12:25 | 22.38243 | 114.62540 | 29888 ft | 424 kts | 267° |
| 2026-05-08 12:25 | 22.38029 | 114.59386 | 29192 ft | 425 kts | 267° |
| 2026-05-08 12:25 | 22.37813 | 114.56206 | 28490 ft | 426 kts | 267° |
| 2026-05-08 12:26 | 22.37597 | 114.53041 | 27783 ft | 428 kts | 267° |
| 2026-05-08 12:26 | 22.37377 | 114.49834 | 27040 ft | 431 kts | 267° |
| 2026-05-08 12:26 | 22.37156 | 114.46600 | 26258 ft | 434 kts | 267° |
| 2026-05-08 12:26 | 22.36936 | 114.43363 | 25450 ft | 438 kts | 267° |
| 2026-05-08 12:27 | 22.36710 | 114.40069 | 24624 ft | 442 kts | 268° |
| 2026-05-08 12:27 | 22.36479 | 114.36728 | 23758 ft | 447 kts | 268° |
| 2026-05-08 12:27 | 22.36247 | 114.33360 | 22855 ft | 452 kts | 267° |
| 2026-05-08 12:27 | 22.36015 | 114.29996 | 21934 ft | 458 kts | 267° |
| 2026-05-08 12:28 | 22.35780 | 114.26562 | 21183 ft | 457 kts | 267° |
| 2026-05-08 12:28 | 22.35545 | 114.23177 | 20563 ft | 453 kts | 267° |
| 2026-05-08 12:28 | 22.35308 | 114.19795 | 19871 ft | 451 kts | 267° |
| 2026-05-08 12:28 | 22.35073 | 114.16438 | 19218 ft | 447 kts | 266° |
| 2026-05-08 12:29 | 22.34840 | 114.13145 | 18597 ft | 442 kts | 266° |
| 2026-05-08 12:29 | 22.34608 | 114.09878 | 17998 ft | 437 kts | 266° |
| 2026-05-08 12:29 | 22.34375 | 114.06612 | 17392 ft | 432 kts | 266° |
| 2026-05-08 12:29 | 22.34148 | 114.03391 | 16796 ft | 428 kts | 266° |
| 2026-05-08 12:30 | 22.33854 | 114.00244 | 16220 ft | 423 kts | 263° |
| 2026-05-08 12:30 | 22.33367 | 113.97118 | 15635 ft | 420 kts | 257° |
| 2026-05-08 12:30 | 22.32180 | 113.94247 | 15024 ft | 419 kts | 238° |
| 2026-05-08 12:30 | 22.30244 | 113.91959 | 14427 ft | 418 kts | 221° |
| 2026-05-08 12:31 | 22.27981 | 113.90009 | 13840 ft | 415 kts | 220° |
| 2026-05-08 12:31 | 22.25708 | 113.88126 | 13259 ft | 411 kts | 219° |
| 2026-05-08 12:31 | 22.23428 | 113.86247 | 12679 ft | 408 kts | 219° |
| 2026-05-08 12:31 | 22.21198 | 113.84383 | 12192 ft | 401 kts | 219° |
| 2026-05-08 12:32 | 22.19040 | 113.82555 | 12017 ft | 387 kts | 220° |
| 2026-05-08 12:32 | 22.16962 | 113.80780 | 11844 ft | 373 kts | 220° |
| 2026-05-08 12:32 | 22.14980 | 113.79081 | 11677 ft | 360 kts | 220° |
| 2026-05-08 12:32 | 22.13063 | 113.77430 | 11532 ft | 347 kts | 220° |
| 2026-05-08 12:33 | 22.11189 | 113.75816 | 11402 ft | 334 kts | 220° |
| 2026-05-08 12:33 | 22.09426 | 113.74297 | 11298 ft | 321 kts | 220° |
| 2026-05-08 12:33 | 22.07710 | 113.72817 | 11207 ft | 308 kts | 220° |
| 2026-05-08 12:33 | 22.06074 | 113.71409 | 11121 ft | 295 kts | 220° |
| 2026-05-08 12:34 | 22.04493 | 113.70047 | 11048 ft | 282 kts | 220° |
| 2026-05-08 12:34 | 22.02988 | 113.68749 | 10980 ft | 273 kts | 220° |
| 2026-05-08 12:34 | 22.01506 | 113.67467 | 10900 ft | 272 kts | 220° |
| 2026-05-08 12:34 | 22.00028 | 113.66176 | 10618 ft | 270 kts | 220° |
| 2026-05-08 12:35 | 21.98581 | 113.64910 | 10231 ft | 271 kts | 220° |
| 2026-05-08 12:35 | 21.97113 | 113.63625 | 9885 ft | 270 kts | 220° |
| 2026-05-08 12:35 | 21.95657 | 113.62354 | 9597 ft | 267 kts | 220° |
| 2026-05-08 12:35 | 21.94225 | 113.61105 | 9334 ft | 262 kts | 220° |
| 2026-05-08 12:36 | 21.92820 | 113.59880 | 9066 ft | 258 kts | 220° |
| 2026-05-08 12:36 | 21.91370 | 113.58764 | 8769 ft | 255 kts | 205° |
| 2026-05-08 12:36 | 21.89660 | 113.58379 | 8424 ft | 252 kts | 176° |
| 2026-05-08 12:36 | 21.87966 | 113.58805 | 8068 ft | 248 kts | 158° |
| 2026-05-08 12:37 | 21.86562 | 113.59798 | 7807 ft | 234 kts | 134° |
| 2026-05-08 12:37 | 21.85716 | 113.61240 | 7376 ft | 224 kts | 110° |
| 2026-05-08 12:37 | 21.85487 | 113.62872 | 6954 ft | 215 kts | 86° |
| 2026-05-08 12:37 | 21.85803 | 113.64374 | 6622 ft | 203 kts | 71° |
| 2026-05-08 12:38 | 21.86289 | 113.65788 | 6165 ft | 200 kts | 69° |
| 2026-05-08 12:38 | 21.86980 | 113.67050 | 5687 ft | 195 kts | 50° |
| 2026-05-08 12:38 | 21.88037 | 113.67935 | 5199 ft | 190 kts | 30° |
| 2026-05-08 12:38 | 21.89284 | 113.68350 | 4740 ft | 185 kts | 8° |
| 2026-05-08 12:39 | 21.90554 | 113.68193 | 4375 ft | 184 kts | 347° |
| 2026-05-08 12:39 | 21.91757 | 113.67770 | 4039 ft | 183 kts | 342° |
| 2026-05-08 12:39 | 21.92961 | 113.67297 | 3822 ft | 182 kts | 342° |
| 2026-05-08 12:39 | 21.94161 | 113.66825 | 3608 ft | 181 kts | 342° |
| 2026-05-08 12:40 | 21.95350 | 113.66368 | 3439 ft | 181 kts | 343° |
| 2026-05-08 12:40 | 21.96544 | 113.65919 | 3299 ft | 180 kts | 343° |
| 2026-05-08 12:40 | 21.97742 | 113.65476 | 3177 ft | 180 kts | 344° |
| 2026-05-08 12:40 | 21.98918 | 113.65043 | 2968 ft | 180 kts | 343° |
| 2026-05-08 12:41 | 22.00112 | 113.64605 | 2734 ft | 179 kts | 343° |
| 2026-05-08 12:41 | 22.01252 | 113.64187 | 2486 ft | 169 kts | 344° |
| 2026-05-08 12:41 | 22.02382 | 113.63773 | 2269 ft | 169 kts | 343° |
| 2026-05-08 12:41 | 22.03485 | 113.63369 | 2064 ft | 168 kts | 343° |
| 2026-05-08 12:42 | 22.04591 | 113.62962 | 1855 ft | 167 kts | 344° |
| 2026-05-08 12:42 | 22.05682 | 113.62561 | 1639 ft | 161 kts | 343° |
| 2026-05-08 12:42 | 22.06701 | 113.62186 | 1412 ft | 150 kts | 343° |
| 2026-05-08 12:42 | 22.07686 | 113.61824 | 1231 ft | 148 kts | 343° |
| 2026-05-08 12:43 | 22.08665 | 113.61465 | 1054 ft | 148 kts | 343° |
| 2026-05-08 12:43 | 22.09648 | 113.61104 | 865 ft | 148 kts | 342° |
| 2026-05-08 12:43 | 22.10630 | 113.60744 | 674 ft | 147 kts | 342° |
| 2026-05-08 12:43 | 22.11607 | 113.60384 | 479 ft | 147 kts | 341° |
| 2026-05-08 12:44 | 22.12580 | 113.60027 | 287 ft | 147 kts | 340° |
| 2026-05-08 12:44 | 22.13536 | 113.59660 | 122 ft | 145 kts | 340° |
| 2026-05-08 12:44 | 22.14489 | 113.59304 | 24 ft | 142 kts | 341° |
| 2026-05-08 12:44 | 22.15321 | 113.58999 | 19 ft | 108 kts | 341° |
| 2026-05-08 12:45 | 22.15872 | 113.58797 | 14 ft | 51 kts | 341° |
| 2026-05-08 12:45 | 22.16091 | 113.58716 | 15 ft | 20 kts | 341° |
| 2026-05-08 12:45 | 22.16191 | 113.58662 | 15 ft | 14 kts | 303° |
| 2026-05-08 12:45 | 22.16217 | 113.58553 | 13 ft | 16 kts | 281° |
| 2026-05-08 12:46 | 22.16239 | 113.58427 | 10 ft | 17 kts | 281° |
| 2026-05-08 12:46 | 22.16257 | 113.58292 | 9 ft | 17 kts | 264° |
| 2026-05-08 12:46 | 22.16220 | 113.58170 | 9 ft | 17 kts | 250° |
| 2026-05-08 12:46 | 22.16182 | 113.58049 | 10 ft | 16 kts | 252° |
| 2026-05-08 12:47 | 22.16144 | 113.57929 | 10 ft | 16 kts | 251° |
| 2026-05-08 12:47 | 22.16107 | 113.57818 | 11 ft | 14 kts | 251° |
| 2026-05-08 12:47 | 22.16050 | 113.57750 | 14 ft | 12 kts | 201° |
| 2026-05-08 12:47 | 22.15966 | 113.57727 | 14 ft | 12 kts | 192° |
| 2026-05-08 12:48 | 22.15884 | 113.57705 | 14 ft | 10 kts | 195° |
| 2026-05-08 12:48 | 22.15847 | 113.57679 | 14 ft | 6 kts | 263° |
| 2026-05-08 12:48 | 22.15853 | 113.57646 | 16 ft | 2 kts | 284° |
| 2026-05-08 12:48 | 22.15859 | 113.57619 | 19 ft | 5 kts | 284° |
| 2026-05-08 12:49 | 22.15862 | 113.57607 | 20 ft | 0 kts | 285° |